Actual water levels and discharges of Morava river

Lanžhot

Date and time (UTC) H (cm) Q (m³/s)
22. 4. 2024 03:50 126 67.4
22. 4. 2024 03:00 126 67
22. 4. 2024 02:00 124 66
22. 4. 2024 01:00 124 66
22. 4. 2024 00:00 121 64
21. 4. 2024 23:00 117 62
21. 4. 2024 22:00 112 59
21. 4. 2024 21:00 108 56
21. 4. 2024 20:00 106 55
21. 4. 2024 19:00 105 55
21. 4. 2024 18:00 103 54
21. 4. 2024 17:00 102 53
21. 4. 2024 16:00 100 52
21. 4. 2024 15:00 98 51

H - water level, Q - discharge

Strážnice

Date and time (UTC) H (cm) Q (m³/s)
22. 4. 2024 03:40 216 66.8
22. 4. 2024 03:00 223 71
22. 4. 2024 02:00 227 73
22. 4. 2024 01:00 229 74
22. 4. 2024 00:00 229 74
21. 4. 2024 23:00 228 73
21. 4. 2024 22:00 229 74
21. 4. 2024 21:00 230 75
21. 4. 2024 20:00 224 71
21. 4. 2024 19:00 222 70
21. 4. 2024 18:00 217 67
21. 4. 2024 17:00 212 65
21. 4. 2024 16:00 206 62
21. 4. 2024 15:00 200 58

H - water level, Q - discharge
more information

Spytihněv

Date and time (UTC) H (cm) Q (m³/s)
22. 4. 2024 03:40 170 62.5
22. 4. 2024 03:00 170 63
22. 4. 2024 02:00 171 63
22. 4. 2024 01:00 176 67
22. 4. 2024 00:00 175 66
21. 4. 2024 23:00 174 65
21. 4. 2024 22:00 187 75
21. 4. 2024 21:00 188 76
21. 4. 2024 20:00 188 76
21. 4. 2024 19:00 187 75
21. 4. 2024 18:00 187 75
21. 4. 2024 17:00 187 75
21. 4. 2024 16:00 187 75
21. 4. 2024 15:00 187 75

H - water level, Q - discharge

Kroměříž

Date and time (UTC) H (cm) Q (m³/s)
22. 4. 2024 03:40 184 54.5
22. 4. 2024 03:00 184 55
22. 4. 2024 02:00 185 55
22. 4. 2024 01:00 186 56
22. 4. 2024 00:00 188 58
21. 4. 2024 23:00 189 59
21. 4. 2024 22:00 190 59
21. 4. 2024 21:00 192 61
21. 4. 2024 20:00 196 64
21. 4. 2024 19:00 199 67
21. 4. 2024 18:00 195 63
21. 4. 2024 17:00 197 65
21. 4. 2024 16:00 198 66
21. 4. 2024 15:00 201 68

H - water level, Q - discharge
more information

Olomouc-Nové Sady tok

Date and time (UTC) H (cm) Q (m³/s)
22. 4. 2024 03:50 128 22
22. 4. 2024 03:00 128 22
22. 4. 2024 02:00 129 22
22. 4. 2024 01:00 129 22
22. 4. 2024 00:00 129 22
21. 4. 2024 23:00 129 22
21. 4. 2024 22:00 129 22
21. 4. 2024 21:00 130 23
21. 4. 2024 20:00 130 23
21. 4. 2024 19:00 130 23
21. 4. 2024 18:00 130 23
21. 4. 2024 17:00 131 23
21. 4. 2024 16:00 131 23
21. 4. 2024 15:00 131 23

H - water level, Q - discharge

Moravičany

Date and time (UTC) H (cm) Q (m³/s)
22. 4. 2024 03:50 91 12.9
22. 4. 2024 03:00 90 13
22. 4. 2024 02:00 91 13
22. 4. 2024 01:00 90 13
22. 4. 2024 00:00 91 13
21. 4. 2024 23:00 91 13
21. 4. 2024 22:00 91 13
21. 4. 2024 21:00 91 13
21. 4. 2024 20:00 92 13
21. 4. 2024 19:00 92 13
21. 4. 2024 18:00 92 13
21. 4. 2024 17:00 92 13
21. 4. 2024 16:00 92 13
21. 4. 2024 15:00 92 13

H - water level, Q - discharge
Source data
Labe Basin Vltava Basin Povodí Moravy ČHMÚ
Po vodě ekologicky, levně a v pohodě
backgroung on backgroung off